Haigler, Nebraska
Current Conditions -  °F | °C
As of 12:35 PM on Friday 28 Nov 2014 (Local Time) from K2V5 Reporting Station
Clear Clear  
Wind Chill: 72°   Ceiling: Unl
Heat Index: 72°   Visibility: 10mi
Dew Point: 16°   Wind: 9mph
Humidity: 12%   Direction: 280°W
Pressure: 29.81"   Gusts: NA
Location:  40.01°N, 101.94°W
Report Text: K2V5 281935Z AUTO 28008KT 10SM CLR 22/M09 A2981 RMK AO2 T02221088
Loading
Personal Weather Stations






























Interactive Weather Map New forecast layout! Learn more

10-Day Weather Forecast

Advertisements
Track Severe Weather on mobile